createdAt,value
2022-09-30T00:00:05.811Z,1005.16
2022-09-30T00:01:05.793Z,1005.12
2022-09-30T00:02:05.824Z,1005.20
2022-09-30T00:03:05.862Z,1005.12
2022-09-30T00:04:05.764Z,1005.15
2022-09-30T00:05:05.734Z,1005.25
2022-09-30T00:06:08.524Z,1005.20
2022-09-30T00:07:05.727Z,1005.20
2022-09-30T00:08:05.702Z,1005.22
2022-09-30T00:09:05.758Z,1005.28
2022-09-30T00:10:05.681Z,1005.26
2022-09-30T00:11:05.659Z,1005.26
2022-09-30T00:12:05.639Z,1005.30
2022-09-30T00:13:05.623Z,1005.32
2022-09-30T00:14:05.617Z,1005.29
2022-09-30T00:15:05.597Z,1005.33
2022-09-30T00:16:05.608Z,1005.26
2022-09-30T00:17:05.600Z,1005.27
2022-09-30T00:18:05.571Z,1005.23
2022-09-30T00:19:05.557Z,1005.27
2022-09-30T00:20:05.548Z,1005.25
2022-09-30T00:21:05.515Z,1005.27
2022-09-30T00:22:05.540Z,1005.27
2022-09-30T00:23:05.499Z,1005.26
2022-09-30T00:24:05.475Z,1005.35
2022-09-30T00:25:05.456Z,1005.31
2022-09-30T00:26:05.459Z,1005.28
2022-09-30T00:27:05.579Z,1005.39
2022-09-30T00:28:05.461Z,1005.35
2022-09-30T00:29:05.412Z,1005.36
2022-09-30T00:30:05.399Z,1005.42
2022-09-30T00:31:05.530Z,1005.42
2022-09-30T00:32:05.399Z,1005.46
2022-09-30T00:33:05.387Z,1005.47
2022-09-30T00:34:05.351Z,1005.48
2022-09-30T00:35:05.339Z,1005.44
2022-09-30T00:36:05.328Z,1005.50
2022-09-30T00:37:05.320Z,1005.45
2022-09-30T00:38:05.325Z,1005.47
2022-09-30T00:39:05.287Z,1005.48
2022-09-30T00:40:05.283Z,1005.51
2022-09-30T00:41:05.254Z,1005.56
2022-09-30T00:42:05.247Z,1005.48
2022-09-30T00:43:05.252Z,1005.47
2022-09-30T00:44:05.213Z,1005.45
2022-09-30T00:45:05.223Z,1005.53
2022-09-30T00:46:05.216Z,1005.49
2022-09-30T00:47:05.232Z,1005.47
2022-09-30T00:48:05.225Z,1005.57
2022-09-30T00:49:05.174Z,1005.56
2022-09-30T00:50:05.144Z,1005.45
2022-09-30T00:51:05.146Z,1005.51
2022-09-30T00:52:05.110Z,1005.51
2022-09-30T00:53:05.110Z,1005.52
2022-09-30T00:54:05.083Z,1005.44
2022-09-30T00:55:05.092Z,1005.45
2022-09-30T00:56:05.093Z,1005.50
2022-09-30T00:57:05.047Z,1005.47
2022-09-30T00:58:05.059Z,1005.47
2022-09-30T00:59:05.031Z,1005.50
2022-09-30T01:00:05.022Z,1005.46
2022-09-30T01:01:05.130Z,1005.46
2022-09-30T01:02:05.027Z,1005.49
2022-09-30T01:03:04.978Z,1005.46
2022-09-30T01:04:04.960Z,1005.48
2022-09-30T01:05:04.939Z,1005.50
2022-09-30T01:06:04.937Z,1005.51
2022-09-30T01:07:04.919Z,1005.43
2022-09-30T01:08:04.971Z,1005.51
2022-09-30T01:09:04.939Z,1005.49
2022-09-30T01:10:04.867Z,1005.51
2022-09-30T01:11:08.169Z,1005.48
2022-09-30T01:12:04.862Z,1005.44
2022-09-30T01:13:04.870Z,1005.45
2022-09-30T01:14:04.855Z,1005.45
2022-09-30T01:15:04.807Z,1005.45
2022-09-30T01:16:04.817Z,1005.37
2022-09-30T01:17:04.786Z,1005.47
2022-09-30T01:18:04.789Z,1005.41
2022-09-30T01:19:04.809Z,1005.38
2022-09-30T01:20:04.745Z,1005.46
2022-09-30T01:21:04.726Z,1005.46
2022-09-30T01:22:04.728Z,1005.45
2022-09-30T01:23:04.706Z,1005.49
2022-09-30T01:24:04.714Z,1005.50
2022-09-30T01:25:04.689Z,1005.51
2022-09-30T01:26:04.677Z,1005.50
2022-09-30T01:27:04.668Z,1005.55
2022-09-30T01:28:04.662Z,1005.53
2022-09-30T01:29:04.671Z,1005.59
2022-09-30T01:30:04.618Z,1005.60
2022-09-30T01:31:04.711Z,1005.61
2022-09-30T01:32:04.594Z,1005.67
2022-09-30T01:33:04.585Z,1005.69
2022-09-30T01:34:04.585Z,1005.63
2022-09-30T01:35:04.553Z,1005.67
2022-09-30T01:36:04.567Z,1005.70
2022-09-30T01:37:04.531Z,1005.65
2022-09-30T01:38:04.522Z,1005.67
2022-09-30T01:39:04.498Z,1005.64
2022-09-30T01:40:04.493Z,1005.61
2022-09-30T01:41:04.484Z,1005.57
2022-09-30T01:42:04.467Z,1005.62
2022-09-30T01:43:04.455Z,1005.55
2022-09-30T01:44:04.433Z,1005.63
2022-09-30T01:45:04.456Z,1005.60
2022-09-30T01:46:04.415Z,1005.64
2022-09-30T01:47:04.476Z,1005.61
2022-09-30T01:48:04.408Z,1005.61
2022-09-30T01:49:04.374Z,1005.65
2022-09-30T01:50:04.374Z,1005.66
2022-09-30T01:51:04.340Z,1005.62
2022-09-30T01:52:04.334Z,1005.68
2022-09-30T01:53:04.310Z,1005.68
2022-09-30T01:54:04.310Z,1005.67
2022-09-30T01:55:04.317Z,1005.60
2022-09-30T01:56:04.288Z,1005.65
2022-09-30T01:57:04.269Z,1005.67
2022-09-30T01:58:04.269Z,1005.64
2022-09-30T01:59:04.252Z,1005.62
2022-09-30T02:00:04.266Z,1005.65
2022-09-30T02:01:04.240Z,1005.70
2022-09-30T02:02:04.283Z,1005.65
2022-09-30T02:03:04.191Z,1005.62
2022-09-30T02:04:04.182Z,1005.56
2022-09-30T02:05:04.178Z,1005.58
2022-09-30T02:06:04.146Z,1005.58
2022-09-30T02:07:04.134Z,1005.63
2022-09-30T02:08:04.122Z,1005.52
2022-09-30T02:09:04.162Z,1005.57
2022-09-30T02:10:04.121Z,1005.54
2022-09-30T02:11:04.089Z,1005.61
2022-09-30T02:12:04.090Z,1005.63
2022-09-30T02:13:04.056Z,1005.60
2022-09-30T02:14:12.634Z,1005.64
2022-09-30T02:15:04.781Z,1005.63
2022-09-30T02:16:04.812Z,1005.66
2022-09-30T02:17:05.689Z,1005.64
2022-09-30T02:18:04.015Z,1005.63
2022-09-30T02:19:03.969Z,1005.60
2022-09-30T02:20:03.991Z,1005.56
2022-09-30T02:21:03.964Z,1005.61
2022-09-30T02:22:03.959Z,1005.60
2022-09-30T02:23:03.956Z,1005.62
2022-09-30T02:24:03.908Z,1005.62
2022-09-30T02:25:03.920Z,1005.61
2022-09-30T02:26:03.885Z,1005.62
2022-09-30T02:27:03.891Z,1005.67
2022-09-30T02:28:03.900Z,1005.66
2022-09-30T02:29:03.866Z,1005.69
2022-09-30T02:30:03.862Z,1005.67
2022-09-30T02:31:03.873Z,1005.71
2022-09-30T02:32:03.819Z,1005.68
2022-09-30T02:33:03.804Z,1005.69
2022-09-30T02:34:03.789Z,1005.71
2022-09-30T02:35:03.783Z,1005.68
2022-09-30T02:36:03.753Z,1005.70
2022-09-30T02:37:03.786Z,1005.66
2022-09-30T02:38:03.764Z,1005.70
2022-09-30T02:39:03.735Z,1005.74
2022-09-30T02:40:03.752Z,1005.76
2022-09-30T02:41:03.701Z,1005.72
2022-09-30T02:42:03.695Z,1005.75
2022-09-30T02:43:03.676Z,1005.77
2022-09-30T02:44:03.651Z,1005.81
2022-09-30T02:45:03.725Z,1005.76
2022-09-30T02:46:03.643Z,1005.76
2022-09-30T02:47:03.612Z,1005.74
2022-09-30T02:48:03.634Z,1005.82
2022-09-30T02:49:03.604Z,1005.80
2022-09-30T02:50:03.592Z,1005.85
2022-09-30T02:51:03.563Z,1005.81
2022-09-30T02:52:03.563Z,1005.78
2022-09-30T02:53:03.551Z,1005.83
2022-09-30T02:54:03.534Z,1005.82
2022-09-30T02:55:03.555Z,1005.83
2022-09-30T02:56:03.501Z,1005.79
2022-09-30T02:57:03.482Z,1005.75
2022-09-30T02:58:03.496Z,1005.80
2022-09-30T02:59:03.490Z,1005.73
2022-09-30T03:00:05.187Z,1005.76
2022-09-30T03:01:03.510Z,1005.75
2022-09-30T03:02:03.479Z,1005.81
2022-09-30T03:03:03.400Z,1005.76
2022-09-30T03:04:03.391Z,1005.81
2022-09-30T03:05:03.403Z,1005.76
2022-09-30T03:06:03.364Z,1005.78
2022-09-30T03:07:03.394Z,1005.79
2022-09-30T03:08:03.363Z,1005.79
2022-09-30T03:09:03.410Z,1005.76
2022-09-30T03:10:03.351Z,1005.78
2022-09-30T03:11:03.331Z,1005.85
2022-09-30T03:12:03.292Z,1005.79
2022-09-30T03:13:03.302Z,1005.83
2022-09-30T03:14:03.280Z,1005.86
2022-09-30T03:15:03.257Z,1005.83
2022-09-30T03:16:03.324Z,1005.89
2022-09-30T03:17:03.239Z,1005.90
2022-09-30T03:18:03.227Z,1005.87
2022-09-30T03:19:03.211Z,1005.91
2022-09-30T03:20:03.198Z,1005.87
2022-09-30T03:21:03.186Z,1005.88
2022-09-30T03:22:03.172Z,1005.87
2022-09-30T03:23:03.180Z,1005.91
2022-09-30T03:24:03.154Z,1005.89
2022-09-30T03:25:03.116Z,1005.86
2022-09-30T03:26:03.137Z,1005.86
2022-09-30T03:27:03.117Z,1005.94
2022-09-30T03:28:03.086Z,1005.91
2022-09-30T03:29:03.105Z,1005.85
2022-09-30T03:30:03.068Z,1005.94
2022-09-30T03:31:03.131Z,1005.91
2022-09-30T03:32:03.039Z,1005.90
2022-09-30T03:33:03.028Z,1005.93
2022-09-30T03:34:02.994Z,1005.91
2022-09-30T03:35:02.993Z,1005.96
2022-09-30T03:36:03.000Z,1005.98
2022-09-30T03:37:04.378Z,1005.96
2022-09-30T03:38:02.980Z,1005.99
2022-09-30T03:39:02.933Z,1005.97
2022-09-30T03:40:02.933Z,1006.00
2022-09-30T03:41:02.924Z,1006.05
2022-09-30T03:42:02.914Z,1006.08
2022-09-30T03:43:02.909Z,1006.09
2022-09-30T03:44:02.863Z,1006.08
2022-09-30T03:45:02.877Z,1006.08
2022-09-30T03:46:02.853Z,1006.06
2022-09-30T03:47:02.952Z,1006.07
2022-09-30T03:48:02.852Z,1006.09
2022-09-30T03:49:03.787Z,1006.05
2022-09-30T03:50:02.818Z,1006.09
2022-09-30T03:51:02.798Z,1006.05
2022-09-30T03:52:02.774Z,1006.03
2022-09-30T03:53:02.770Z,1006.07
2022-09-30T03:54:02.785Z,1006.06
2022-09-30T03:55:02.748Z,1006.06
2022-09-30T03:56:02.748Z,1006.04
2022-09-30T03:57:02.710Z,1006.11
2022-09-30T03:58:02.691Z,1006.08
2022-09-30T03:59:02.694Z,1006.12
2022-09-30T04:00:02.700Z,1006.15
2022-09-30T04:01:02.760Z,1006.12
2022-09-30T04:02:02.706Z,1006.15
2022-09-30T04:03:02.633Z,1006.13
2022-09-30T04:04:02.653Z,1006.19
2022-09-30T04:05:02.603Z,1006.21
2022-09-30T04:06:02.612Z,1006.27
2022-09-30T04:07:02.590Z,1006.27
2022-09-30T04:08:02.590Z,1006.29
2022-09-30T04:09:02.581Z,1006.28
2022-09-30T04:10:02.528Z,1006.31
2022-09-30T04:11:02.539Z,1006.33
2022-09-30T04:12:02.513Z,1006.32
2022-09-30T04:13:02.501Z,1006.41
2022-09-30T04:14:02.478Z,1006.41
2022-09-30T04:15:02.480Z,1006.37
2022-09-30T04:16:02.520Z,1006.43
2022-09-30T04:17:02.447Z,1006.47
2022-09-30T04:18:02.447Z,1006.38
2022-09-30T04:19:02.440Z,1006.44
2022-09-30T04:20:02.416Z,1006.44
2022-09-30T04:21:02.405Z,1006.44
2022-09-30T04:22:02.367Z,1006.42
2022-09-30T04:23:02.369Z,1006.44
2022-09-30T04:24:02.355Z,1006.40
2022-09-30T04:25:02.334Z,1006.44
2022-09-30T04:26:02.331Z,1006.41
2022-09-30T04:27:02.355Z,1006.42
2022-09-30T04:28:02.323Z,1006.52
2022-09-30T04:29:02.286Z,1006.53
2022-09-30T04:30:02.294Z,1006.54
2022-09-30T04:31:02.335Z,1006.55
2022-09-30T04:32:02.271Z,1006.58
2022-09-30T04:33:02.225Z,1006.54
2022-09-30T04:34:02.225Z,1006.63
2022-09-30T04:35:02.221Z,1006.60
2022-09-30T04:36:02.228Z,1006.66
2022-09-30T04:37:02.181Z,1006.58
2022-09-30T04:38:02.176Z,1006.63
2022-09-30T04:39:02.162Z,1006.65
2022-09-30T04:40:02.142Z,1006.66
2022-09-30T04:41:02.122Z,1006.59
2022-09-30T04:42:02.146Z,1006.66
2022-09-30T04:43:02.092Z,1006.75
2022-09-30T04:44:02.093Z,1006.69
2022-09-30T04:45:02.092Z,1006.77
2022-09-30T04:46:02.196Z,1006.70
2022-09-30T04:47:02.064Z,1006.78
2022-09-30T04:48:02.041Z,1006.72
2022-09-30T04:49:05.505Z,1006.78
2022-09-30T04:50:03.020Z,1006.79
2022-09-30T04:51:02.040Z,1006.77
2022-09-30T04:52:02.021Z,1006.81
2022-09-30T04:53:01.970Z,1006.81
2022-09-30T04:54:09.632Z,1006.83
2022-09-30T04:55:09.541Z,1006.79
2022-09-30T04:56:01.935Z,1006.83
2022-09-30T04:57:02.008Z,1006.79
2022-09-30T04:58:01.963Z,1006.88
2022-09-30T04:59:01.957Z,1006.90
2022-09-30T05:00:01.926Z,1006.83
2022-09-30T05:01:02.010Z,1006.82
2022-09-30T05:02:01.986Z,1006.83
2022-09-30T05:03:01.874Z,1006.81
2022-09-30T05:04:01.833Z,1006.82
2022-09-30T05:05:01.873Z,1006.81
2022-09-30T05:06:01.835Z,1006.74
2022-09-30T05:07:01.892Z,1006.79
2022-09-30T05:08:01.800Z,1006.76
2022-09-30T05:09:01.803Z,1006.78
2022-09-30T05:10:01.818Z,1006.77
2022-09-30T05:11:01.782Z,1006.77
2022-09-30T05:12:01.759Z,1006.79
2022-09-30T05:13:01.715Z,1006.81
2022-09-30T05:14:01.745Z,1006.80
2022-09-30T05:15:01.796Z,1006.77
2022-09-30T05:16:01.791Z,1006.82
2022-09-30T05:17:01.711Z,1006.81
2022-09-30T05:18:01.663Z,1006.90
2022-09-30T05:19:01.675Z,1006.86
2022-09-30T05:20:01.622Z,1006.93
2022-09-30T05:21:01.639Z,1006.95
2022-09-30T05:22:01.640Z,1006.97
2022-09-30T05:23:01.637Z,1007.00
2022-09-30T05:24:01.601Z,1006.98
2022-09-30T05:25:01.579Z,1006.94
2022-09-30T05:26:01.558Z,1006.97
2022-09-30T05:27:01.539Z,1006.92
2022-09-30T05:28:01.552Z,1006.98
2022-09-30T05:29:01.589Z,1006.99
2022-09-30T05:30:01.542Z,1006.91
2022-09-30T05:31:01.633Z,1006.94
2022-09-30T05:32:01.548Z,1006.94
2022-09-30T05:33:01.526Z,1006.96
2022-09-30T05:34:01.482Z,1006.88
2022-09-30T05:35:01.449Z,1006.97
2022-09-30T05:36:01.425Z,1006.89
2022-09-30T05:37:02.453Z,1006.95
2022-09-30T05:38:01.444Z,1006.89
2022-09-30T05:39:01.442Z,1006.98
2022-09-30T05:40:01.389Z,1007.02
2022-09-30T05:41:01.426Z,1007.07
2022-09-30T05:42:01.337Z,1007.09
2022-09-30T05:43:01.389Z,1007.09
2022-09-30T05:44:01.350Z,1007.08
2022-09-30T05:45:01.323Z,1007.11
2022-09-30T05:46:01.326Z,1007.15
2022-09-30T05:47:01.420Z,1007.14
2022-09-30T05:48:01.338Z,1007.16
2022-09-30T05:49:01.269Z,1007.24
2022-09-30T05:50:01.250Z,1007.29
2022-09-30T05:51:01.299Z,1007.28
2022-09-30T05:52:01.225Z,1007.22
2022-09-30T05:53:01.249Z,1007.24
2022-09-30T05:54:01.225Z,1007.36
2022-09-30T05:55:01.184Z,1007.33
2022-09-30T05:56:01.155Z,1007.42
2022-09-30T05:57:01.217Z,1007.36
2022-09-30T05:58:01.197Z,1007.44
2022-09-30T05:59:01.174Z,1007.45
2022-09-30T06:00:01.113Z,1007.50
2022-09-30T06:01:08.038Z,1007.46
2022-09-30T06:02:02.153Z,1007.45
2022-09-30T06:03:01.159Z,1007.53
2022-09-30T06:04:01.075Z,1007.44
2022-09-30T06:05:01.036Z,1007.53
2022-09-30T06:06:01.076Z,1007.46
2022-09-30T06:07:01.092Z,1007.48
2022-09-30T06:08:01.045Z,1007.50
2022-09-30T06:09:01.031Z,1007.51
2022-09-30T06:10:00.996Z,1007.53
2022-09-30T06:11:00.961Z,1007.52
2022-09-30T06:12:01.030Z,1007.57
2022-09-30T06:13:00.995Z,1007.58
2022-09-30T06:14:00.982Z,1007.63
2022-09-30T06:15:00.921Z,1007.63
2022-09-30T06:16:01.025Z,1007.63
2022-09-30T06:17:00.893Z,1007.58
2022-09-30T06:18:00.927Z,1007.56
2022-09-30T06:19:00.840Z,1007.58
2022-09-30T06:20:00.883Z,1007.57
2022-09-30T06:21:00.871Z,1007.62
2022-09-30T06:22:00.808Z,1007.66
2022-09-30T06:23:00.816Z,1007.67
2022-09-30T06:24:00.832Z,1007.67
2022-09-30T06:25:09.085Z,1007.69
2022-09-30T06:26:00.845Z,1007.62
2022-09-30T06:27:00.796Z,1007.72
2022-09-30T06:28:00.753Z,1007.70
2022-09-30T06:29:00.755Z,1007.68
2022-09-30T06:30:00.719Z,1007.66
2022-09-30T06:31:00.715Z,1007.71
2022-09-30T06:32:00.765Z,1007.74
2022-09-30T06:33:00.729Z,1007.78
2022-09-30T06:34:00.746Z,1007.80
2022-09-30T06:35:00.665Z,1007.82
2022-09-30T06:36:00.620Z,1007.78
2022-09-30T06:37:00.624Z,1007.78
2022-09-30T06:38:00.684Z,1007.79
2022-09-30T06:39:00.650Z,1007.84
2022-09-30T06:40:00.592Z,1007.83
2022-09-30T06:41:00.609Z,1007.85
2022-09-30T06:42:00.582Z,1007.85
2022-09-30T06:43:00.617Z,1007.92
2022-09-30T06:44:10.058Z,1007.88
2022-09-30T06:45:01.501Z,1007.94
2022-09-30T06:46:12.671Z,1007.86
2022-09-30T06:47:01.590Z,1007.81
2022-09-30T06:48:01.236Z,1007.86
2022-09-30T06:49:12.183Z,1007.85
2022-09-30T06:50:01.494Z,1007.95
2022-09-30T06:51:02.277Z,1007.90
2022-09-30T06:52:00.484Z,1007.97
2022-09-30T06:53:00.454Z,1008.00
2022-09-30T06:54:00.445Z,1008.05
2022-09-30T06:55:00.394Z,1008.08
2022-09-30T06:56:00.417Z,1008.08
2022-09-30T06:57:00.370Z,1007.99
2022-09-30T06:58:01.383Z,1008.08
2022-09-30T06:59:00.354Z,1007.99
2022-09-30T07:00:00.342Z,1008.04
2022-09-30T07:01:00.380Z,1008.06
2022-09-30T07:02:00.407Z,1008.08
2022-09-30T07:03:00.289Z,1008.11
2022-09-30T07:04:00.248Z,1008.13
2022-09-30T07:05:00.297Z,1008.05
2022-09-30T07:06:00.379Z,1008.13
2022-09-30T07:07:00.261Z,1008.13
2022-09-30T07:08:00.276Z,1008.16
2022-09-30T07:09:00.264Z,1008.17
2022-09-30T07:10:00.212Z,1008.18
2022-09-30T07:11:00.188Z,1008.22
2022-09-30T07:12:00.161Z,1008.19
2022-09-30T07:13:00.166Z,1008.23
2022-09-30T07:14:00.158Z,1008.21
2022-09-30T07:15:00.163Z,1008.17
2022-09-30T07:16:00.261Z,1008.26
2022-09-30T07:17:00.099Z,1008.19
2022-09-30T07:18:00.096Z,1008.24
2022-09-30T07:19:00.096Z,1008.24
2022-09-30T07:20:00.087Z,1008.22
2022-09-30T07:21:00.056Z,1008.22
2022-09-30T07:22:00.038Z,1008.26
2022-09-30T07:23:00.022Z,1008.24
2022-09-30T07:24:00.017Z,1008.23
2022-09-30T07:24:59.976Z,1008.27
2022-09-30T07:25:59.964Z,1008.35
2022-09-30T07:26:59.968Z,1008.26
2022-09-30T07:27:59.953Z,1008.33
2022-09-30T07:28:59.941Z,1008.44
2022-09-30T07:30:24.011Z,1008.47
2022-09-30T07:31:27.555Z,1008.43
2022-09-30T07:32:00.950Z,1008.45
2022-09-30T07:32:59.883Z,1008.50
2022-09-30T07:33:59.885Z,1008.44
2022-09-30T07:34:59.865Z,1008.46
2022-09-30T07:35:59.836Z,1008.41
2022-09-30T07:36:59.864Z,1008.42
2022-09-30T07:37:59.826Z,1008.46
2022-09-30T07:38:59.823Z,1008.38
2022-09-30T07:39:59.785Z,1008.45
2022-09-30T07:40:59.784Z,1008.45
2022-09-30T07:41:59.777Z,1008.45
2022-09-30T07:42:59.772Z,1008.48
2022-09-30T07:43:59.755Z,1008.43
2022-09-30T07:44:59.735Z,1008.41
2022-09-30T07:45:59.741Z,1008.39
2022-09-30T07:46:59.696Z,1008.38
2022-09-30T07:47:59.697Z,1008.42
2022-09-30T07:48:59.735Z,1008.42
2022-09-30T07:49:59.653Z,1008.43
2022-09-30T07:50:59.655Z,1008.43
2022-09-30T07:51:59.650Z,1008.44
2022-09-30T07:53:00.630Z,1008.40
2022-09-30T07:53:59.610Z,1008.48
2022-09-30T07:54:59.606Z,1008.39
2022-09-30T07:55:59.593Z,1008.41
2022-09-30T07:57:14.917Z,1008.43
2022-09-30T07:58:00.549Z,1008.40
2022-09-30T07:58:59.569Z,1008.38
2022-09-30T08:00:11.817Z,1008.45
2022-09-30T08:01:00.572Z,1008.45
2022-09-30T08:01:59.557Z,1008.46
2022-09-30T08:02:59.503Z,1008.47
2022-09-30T08:03:59.478Z,1008.47
2022-09-30T08:04:59.489Z,1008.42
2022-09-30T08:05:59.461Z,1008.51
2022-09-30T08:06:59.476Z,1008.48
2022-09-30T08:07:59.462Z,1008.50
2022-09-30T08:08:59.587Z,1008.42
2022-09-30T08:09:59.578Z,1008.39
2022-09-30T08:10:59.412Z,1008.40
2022-09-30T08:11:59.413Z,1008.42
2022-09-30T08:13:01.043Z,1008.38
2022-09-30T08:14:56.554Z,1008.47
2022-09-30T08:15:59.225Z,1008.39
2022-09-30T08:16:56.515Z,1008.45
2022-09-30T08:17:59.191Z,1008.47
2022-09-30T08:18:56.515Z,1008.43
2022-09-30T08:19:56.463Z,1008.44
2022-09-30T08:20:56.474Z,1008.39
2022-09-30T08:21:56.508Z,1008.40
2022-09-30T08:22:56.433Z,1008.43
2022-09-30T08:23:56.433Z,1008.42
2022-09-30T08:24:56.400Z,1008.48
2022-09-30T08:25:56.381Z,1008.44
2022-09-30T08:26:56.456Z,1008.47
2022-09-30T08:27:56.395Z,1008.53
2022-09-30T08:28:56.373Z,1008.46
2022-09-30T08:29:59.127Z,1008.53
2022-09-30T08:30:56.343Z,1008.49
2022-09-30T08:31:56.351Z,1008.48
2022-09-30T08:32:56.323Z,1008.48
2022-09-30T08:33:56.315Z,1008.44
2022-09-30T08:34:56.288Z,1008.49
2022-09-30T08:35:56.257Z,1008.45
2022-09-30T08:36:59.566Z,1008.49
2022-09-30T08:37:56.251Z,1008.47
2022-09-30T08:38:56.262Z,1008.50
2022-09-30T08:39:56.219Z,1008.53
2022-09-30T08:40:56.217Z,1008.53
2022-09-30T08:41:59.627Z,1008.53
2022-09-30T08:42:57.606Z,1008.49
2022-09-30T08:43:56.192Z,1008.48
2022-09-30T08:44:56.154Z,1008.46
2022-09-30T08:45:56.213Z,1008.47
2022-09-30T08:46:58.411Z,1008.52
2022-09-30T08:47:56.106Z,1008.51
2022-09-30T08:48:57.701Z,1008.52
2022-09-30T08:49:56.099Z,1008.49
2022-09-30T08:50:56.089Z,1008.52
2022-09-30T08:51:56.055Z,1008.45
2022-09-30T08:52:56.059Z,1008.48
2022-09-30T08:53:56.044Z,1008.46
2022-09-30T08:54:56.024Z,1008.41
2022-09-30T08:55:56.022Z,1008.45
2022-09-30T08:56:56.002Z,1008.39
2022-09-30T08:57:55.975Z,1008.42
2022-09-30T08:58:55.996Z,1008.47
2022-09-30T08:59:56.007Z,1008.39
2022-09-30T09:00:56.006Z,1008.40
2022-09-30T09:01:56.004Z,1008.48
2022-09-30T09:02:55.922Z,1008.47
2022-09-30T09:03:55.924Z,1008.44
2022-09-30T09:04:55.894Z,1008.49
2022-09-30T09:05:55.886Z,1008.55
2022-09-30T09:06:55.876Z,1008.51
2022-09-30T09:07:55.854Z,1008.51
2022-09-30T09:08:55.862Z,1008.52
2022-09-30T09:09:55.855Z,1008.56
2022-09-30T09:10:55.824Z,1008.51
2022-09-30T09:11:55.801Z,1008.54
2022-09-30T09:12:55.781Z,1008.52
2022-09-30T09:13:55.782Z,1008.54
2022-09-30T09:14:55.771Z,1008.51
2022-09-30T09:15:55.751Z,1008.53
2022-09-30T09:16:55.752Z,1008.55
2022-09-30T09:18:18.770Z,1008.49
2022-09-30T09:18:56.724Z,1008.55
2022-09-30T09:19:55.718Z,1008.49
2022-09-30T09:20:55.680Z,1008.54
2022-09-30T09:21:55.684Z,1008.54
2022-09-30T09:22:55.672Z,1008.46
2022-09-30T09:23:55.662Z,1008.45
2022-09-30T09:24:55.655Z,1008.52
2022-09-30T09:25:55.640Z,1008.56
2022-09-30T09:26:55.619Z,1008.50
2022-09-30T09:27:55.631Z,1008.49
2022-09-30T09:28:55.605Z,1008.53
2022-09-30T09:29:55.613Z,1008.48
2022-09-30T09:30:55.562Z,1008.49
2022-09-30T09:31:55.626Z,1008.48
2022-09-30T09:32:55.540Z,1008.50
2022-09-30T09:33:55.518Z,1008.47
2022-09-30T09:34:55.512Z,1008.49
2022-09-30T09:35:55.534Z,1008.42
2022-09-30T09:36:55.484Z,1008.41
2022-09-30T09:37:55.483Z,1008.45
2022-09-30T09:38:55.445Z,1008.41
2022-09-30T09:39:55.471Z,1008.40
2022-09-30T09:40:55.417Z,1008.41
2022-09-30T09:41:55.433Z,1008.33
2022-09-30T09:42:55.404Z,1008.40
2022-09-30T09:43:55.386Z,1008.34
2022-09-30T09:44:55.389Z,1008.40
2022-09-30T09:45:55.411Z,1008.40
2022-09-30T09:46:55.369Z,1008.32
2022-09-30T09:47:55.336Z,1008.30
2022-09-30T09:48:55.316Z,1008.36
2022-09-30T09:49:57.514Z,1008.31
2022-09-30T09:50:55.307Z,1008.27
2022-09-30T09:51:55.298Z,1008.27
2022-09-30T09:52:55.280Z,1008.31
2022-09-30T09:53:55.258Z,1008.29
2022-09-30T09:54:55.254Z,1008.31
2022-09-30T09:55:55.233Z,1008.30
2022-09-30T09:56:55.227Z,1008.28
2022-09-30T09:57:55.205Z,1008.35
2022-09-30T09:58:55.203Z,1008.33
2022-09-30T09:59:55.255Z,1008.31
2022-09-30T10:00:55.246Z,1008.35
2022-09-30T10:01:55.211Z,1008.36
2022-09-30T10:02:55.134Z,1008.37
2022-09-30T10:03:55.132Z,1008.36
2022-09-30T10:04:55.137Z,1008.42
2022-09-30T10:05:55.120Z,1008.33
2022-09-30T10:06:55.110Z,1008.35
2022-09-30T10:07:55.076Z,1008.33
2022-09-30T10:08:55.077Z,1008.33
2022-09-30T10:09:55.087Z,1008.32
2022-09-30T10:10:55.046Z,1008.32
2022-09-30T10:11:55.035Z,1008.36
2022-09-30T10:12:55.026Z,1008.23
2022-09-30T10:13:55.002Z,1008.27
2022-09-30T10:14:55.037Z,1008.30
2022-09-30T10:15:55.040Z,1008.30
2022-09-30T10:16:54.953Z,1008.30
2022-09-30T10:17:54.954Z,1008.27
2022-09-30T10:18:54.932Z,1008.26
2022-09-30T10:19:54.986Z,1008.27
2022-09-30T10:20:54.916Z,1008.22
2022-09-30T10:21:56.848Z,1008.27
2022-09-30T10:22:54.915Z,1008.23
2022-09-30T10:23:54.888Z,1008.21
2022-09-30T10:24:54.850Z,1008.22
2022-09-30T10:25:54.876Z,1008.19
2022-09-30T10:26:54.843Z,1008.20
2022-09-30T10:27:54.954Z,1008.15
2022-09-30T10:28:54.822Z,1008.19
2022-09-30T10:29:54.796Z,1008.19
2022-09-30T10:30:54.812Z,1008.16
2022-09-30T10:31:58.995Z,1008.16
2022-09-30T10:32:55.767Z,1008.16
2022-09-30T10:33:54.752Z,1008.13
2022-09-30T10:34:54.734Z,1008.17
2022-09-30T10:35:54.729Z,1008.12
2022-09-30T10:36:54.699Z,1008.20
2022-09-30T10:37:54.705Z,1008.20
2022-09-30T10:38:54.676Z,1008.17
2022-09-30T10:39:54.685Z,1008.15
2022-09-30T10:40:54.704Z,1008.18
2022-09-30T10:41:54.647Z,1008.15
2022-09-30T10:42:54.634Z,1008.21
2022-09-30T10:43:54.637Z,1008.18
2022-09-30T10:44:54.616Z,1008.17
2022-09-30T10:46:20.939Z,1008.15
2022-09-30T10:46:55.666Z,1008.10
2022-09-30T10:47:54.557Z,1008.13
2022-09-30T10:48:54.545Z,1008.02
2022-09-30T10:49:54.551Z,1008.10
2022-09-30T10:50:54.570Z,1008.11
2022-09-30T10:51:54.521Z,1008.10
2022-09-30T10:52:54.512Z,1008.13
2022-09-30T10:53:54.489Z,1008.14
2022-09-30T10:54:54.480Z,1008.08
2022-09-30T10:55:54.500Z,1008.11
2022-09-30T10:56:54.443Z,1008.08
2022-09-30T10:57:54.434Z,1008.10
2022-09-30T10:59:54.415Z,1008.11
2022-09-30T11:00:54.449Z,1008.10
2022-09-30T11:01:57.162Z,1008.10
2022-09-30T11:02:54.435Z,1008.13
2022-09-30T11:03:54.475Z,1008.15
2022-09-30T11:04:54.349Z,1008.17
2022-09-30T11:05:54.353Z,1008.20
2022-09-30T11:06:54.339Z,1008.16
2022-09-30T11:07:54.329Z,1008.16
2022-09-30T11:08:54.294Z,1008.16
2022-09-30T11:09:54.282Z,1008.19
2022-09-30T11:10:54.295Z,1008.20
2022-09-30T11:11:54.263Z,1008.16
2022-09-30T11:12:54.254Z,1008.21
2022-09-30T11:13:54.237Z,1008.21
2022-09-30T11:14:54.236Z,1008.19
2022-09-30T11:15:54.286Z,1008.20
2022-09-30T11:16:54.295Z,1008.22
2022-09-30T11:17:54.207Z,1008.24
2022-09-30T11:18:54.163Z,1008.33
2022-09-30T11:19:54.175Z,1008.25
2022-09-30T11:20:54.155Z,1008.24
2022-09-30T11:21:54.155Z,1008.25
2022-09-30T11:22:54.126Z,1008.26
2022-09-30T11:23:54.115Z,1008.27
2022-09-30T11:24:54.113Z,1008.25
2022-09-30T11:25:54.104Z,1008.29
2022-09-30T11:26:54.076Z,1008.27
2022-09-30T11:27:54.108Z,1008.36
2022-09-30T11:28:54.047Z,1008.40
2022-09-30T11:29:54.034Z,1008.30
2022-09-30T11:30:54.021Z,1008.32
2022-09-30T11:31:54.124Z,1008.29
2022-09-30T11:32:54.004Z,1008.26
2022-09-30T11:33:53.971Z,1008.30
2022-09-30T11:34:53.963Z,1008.25
2022-09-30T11:35:53.993Z,1008.31
2022-09-30T11:36:53.931Z,1008.28
2022-09-30T11:37:53.919Z,1008.25
2022-09-30T11:38:53.922Z,1008.21
2022-09-30T11:39:53.927Z,1008.22
2022-09-30T11:40:53.889Z,1008.20
2022-09-30T11:41:53.905Z,1008.23
2022-09-30T11:42:53.858Z,1008.16
2022-09-30T11:43:53.864Z,1008.19
2022-09-30T11:44:53.828Z,1008.21
2022-09-30T11:45:53.942Z,1008.19
2022-09-30T11:46:53.808Z,1008.18
2022-09-30T11:47:53.810Z,1008.21
2022-09-30T11:48:53.813Z,1008.17
2022-09-30T11:49:53.784Z,1008.22
2022-09-30T11:50:53.765Z,1008.08
2022-09-30T11:51:53.756Z,1008.05
2022-09-30T11:52:53.725Z,1008.09
2022-09-30T11:53:53.716Z,1008.08
2022-09-30T11:54:53.731Z,1008.00
2022-09-30T11:55:53.728Z,1007.99
2022-09-30T11:56:53.684Z,1007.97
2022-09-30T11:57:53.684Z,1008.03
2022-09-30T11:58:53.663Z,1008.05
2022-09-30T11:59:53.664Z,1008.03
2022-09-30T12:00:53.639Z,1008.04
2022-09-30T12:01:53.685Z,1008.05
2022-09-30T12:02:53.670Z,1008.02
2022-09-30T12:03:53.586Z,1008.01
2022-09-30T12:04:53.602Z,1008.09
2022-09-30T12:05:53.577Z,1008.00
2022-09-30T12:06:53.557Z,1008.00